sensor_id;sensor_type;location;lat;lon;timestamp;pressure;altitude;pressure_sealevel;temperature;humidity
7966;BME280;4028;43.272;26.932;2023-03-13T00:01:33;99493.38;;;5.01;100.00
7966;BME280;4028;43.272;26.932;2023-03-13T00:04:00;99499.28;;;5.04;100.00
7966;BME280;4028;43.272;26.932;2023-03-13T00:06:28;99496.56;;;5.06;100.00
7966;BME280;4028;43.272;26.932;2023-03-13T00:08:56;99499.81;;;5.09;100.00
7966;BME280;4028;43.272;26.932;2023-03-13T00:11:21;99503.69;;;5.04;100.00
7966;BME280;4028;43.272;26.932;2023-03-13T00:13:47;99498.56;;;5.02;100.00
7966;BME280;4028;43.272;26.932;2023-03-13T00:16:14;99480.78;;;4.93;100.00
7966;BME280;4028;43.272;26.932;2023-03-13T00:18:48;99499.03;;;4.94;100.00
7966;BME280;4028;43.272;26.932;2023-03-13T00:21:18;99495.59;;;4.94;100.00
7966;BME280;4028;43.272;26.932;2023-03-13T00:23:44;99495.94;;;5.02;100.00
7966;BME280;4028;43.272;26.932;2023-03-13T00:26:12;99494.44;;;4.98;100.00
7966;BME280;4028;43.272;26.932;2023-03-13T00:28:39;99498.75;;;4.99;100.00
7966;BME280;4028;43.272;26.932;2023-03-13T00:31:16;99504.94;;;4.98;100.00
7966;BME280;4028;43.272;26.932;2023-03-13T00:33:45;99501.56;;;4.96;100.00
7966;BME280;4028;43.272;26.932;2023-03-13T00:36:16;99505.78;;;4.99;100.00
7966;BME280;4028;43.272;26.932;2023-03-13T00:38:42;99504.13;;;5.10;100.00
7966;BME280;4028;43.272;26.932;2023-03-13T00:41:10;99496.91;;;5.14;100.00
7966;BME280;4028;43.272;26.932;2023-03-13T00:43:37;99501.06;;;5.04;100.00
7966;BME280;4028;43.272;26.932;2023-03-13T00:46:03;99498.38;;;4.91;100.00
7966;BME280;4028;43.272;26.932;2023-03-13T00:48:29;99497.00;;;4.85;100.00
7966;BME280;4028;43.272;26.932;2023-03-13T00:50:56;99502.53;;;4.81;100.00
7966;BME280;4028;43.272;26.932;2023-03-13T00:53:21;99495.88;;;4.89;100.00
7966;BME280;4028;43.272;26.932;2023-03-13T00:55:59;99498.19;;;4.94;100.00
7966;BME280;4028;43.272;26.932;2023-03-13T00:58:27;99504.41;;;4.93;100.00
7966;BME280;4028;43.272;26.932;2023-03-13T01:00:53;99497.78;;;4.87;100.00
7966;BME280;4028;43.272;26.932;2023-03-13T01:03:20;99493.59;;;4.98;100.00
7966;BME280;4028;43.272;26.932;2023-03-13T01:05:55;99491.28;;;4.93;100.00
7966;BME280;4028;43.272;26.932;2023-03-13T01:08:20;99494.84;;;4.92;100.00
7966;BME280;4028;43.272;26.932;2023-03-13T01:10:45;99499.59;;;5.00;100.00
7966;BME280;4028;43.272;26.932;2023-03-13T01:13:11;99496.53;;;4.93;100.00
7966;BME280;4028;43.272;26.932;2023-03-13T01:15:36;99494.38;;;4.85;100.00
7966;BME280;4028;43.272;26.932;2023-03-13T01:18:02;99506.66;;;4.85;100.00
7966;BME280;4028;43.272;26.932;2023-03-13T01:20:29;99506.47;;;4.88;100.00
7966;BME280;4028;43.272;26.932;2023-03-13T01:22:55;99507.41;;;4.87;100.00
7966;BME280;4028;43.272;26.932;2023-03-13T01:25:20;99514.38;;;4.74;100.00
7966;BME280;4028;43.272;26.932;2023-03-13T01:27:45;99507.31;;;4.61;100.00
7966;BME280;4028;43.272;26.932;2023-03-13T01:30:11;99518.91;;;4.57;100.00
7966;BME280;4028;43.272;26.932;2023-03-13T01:32:36;99524.97;;;4.72;100.00
7966;BME280;4028;43.272;26.932;2023-03-13T01:35:02;99521.44;;;4.59;100.00
7966;BME280;4028;43.272;26.932;2023-03-13T01:37:28;99516.59;;;4.53;100.00
7966;BME280;4028;43.272;26.932;2023-03-13T01:39:53;99514.25;;;4.48;100.00
7966;BME280;4028;43.272;26.932;2023-03-13T01:42:18;99528.19;;;4.49;100.00
7966;BME280;4028;43.272;26.932;2023-03-13T01:44:55;99532.31;;;4.38;100.00
7966;BME280;4028;43.272;26.932;2023-03-13T01:47:20;99534.28;;;4.35;100.00
7966;BME280;4028;43.272;26.932;2023-03-13T01:49:46;99538.31;;;4.40;100.00
7966;BME280;4028;43.272;26.932;2023-03-13T01:52:18;99548.88;;;4.39;100.00
7966;BME280;4028;43.272;26.932;2023-03-13T01:54:52;99550.09;;;4.33;100.00
7966;BME280;4028;43.272;26.932;2023-03-13T01:57:30;99554.59;;;4.31;100.00
7966;BME280;4028;43.272;26.932;2023-03-13T02:00:02;99559.47;;;4.37;100.00
7966;BME280;4028;43.272;26.932;2023-03-13T02:02:29;99554.50;;;4.33;100.00
7966;BME280;4028;43.272;26.932;2023-03-13T02:04:58;99567.16;;;4.26;100.00
7966;BME280;4028;43.272;26.932;2023-03-13T02:07:39;99564.81;;;4.22;100.00
7966;BME280;4028;43.272;26.932;2023-03-13T02:10:07;99569.84;;;4.25;100.00
7966;BME280;4028;43.272;26.932;2023-03-13T02:12:38;99572.84;;;4.33;100.00
7966;BME280;4028;43.272;26.932;2023-03-13T02:15:14;99572.66;;;4.22;100.00
7966;BME280;4028;43.272;26.932;2023-03-13T02:17:41;99577.34;;;4.16;100.00
7966;BME280;4028;43.272;26.932;2023-03-13T02:20:08;99577.59;;;4.12;100.00
7966;BME280;4028;43.272;26.932;2023-03-13T02:22:43;99582.00;;;4.11;100.00
7966;BME280;4028;43.272;26.932;2023-03-13T02:27:53;99595.53;;;4.04;100.00
7966;BME280;4028;43.272;26.932;2023-03-13T02:30:21;99603.78;;;3.98;100.00
7966;BME280;4028;43.272;26.932;2023-03-13T02:32:46;99605.66;;;3.96;100.00
7966;BME280;4028;43.272;26.932;2023-03-13T02:35:16;99609.09;;;3.96;100.00
7966;BME280;4028;43.272;26.932;2023-03-13T02:37:44;99605.91;;;3.91;100.00
7966;BME280;4028;43.272;26.932;2023-03-13T02:40:13;99614.97;;;3.85;100.00
7966;BME280;4028;43.272;26.932;2023-03-13T02:42:41;99608.97;;;3.83;100.00
7966;BME280;4028;43.272;26.932;2023-03-13T02:45:08;99607.22;;;3.84;100.00
7966;BME280;4028;43.272;26.932;2023-03-13T02:47:34;99615.91;;;3.84;100.00
7966;BME280;4028;43.272;26.932;2023-03-13T02:49:59;99614.97;;;3.85;100.00
7966;BME280;4028;43.272;26.932;2023-03-13T02:52:28;99623.94;;;3.81;100.00
7966;BME280;4028;43.272;26.932;2023-03-13T02:54:58;99613.94;;;3.74;100.00
7966;BME280;4028;43.272;26.932;2023-03-13T02:57:25;99626.25;;;3.72;100.00
7966;BME280;4028;43.272;26.932;2023-03-13T02:59:50;99617.34;;;3.60;100.00
7966;BME280;4028;43.272;26.932;2023-03-13T03:02:16;99622.66;;;3.58;100.00
7966;BME280;4028;43.272;26.932;2023-03-13T03:04:41;99633.19;;;3.57;100.00
7966;BME280;4028;43.272;26.932;2023-03-13T03:07:07;99637.69;;;3.55;100.00
7966;BME280;4028;43.272;26.932;2023-03-13T03:09:32;99632.47;;;3.55;100.00
7966;BME280;4028;43.272;26.932;2023-03-13T03:11:58;99631.53;;;3.56;100.00
7966;BME280;4028;43.272;26.932;2023-03-13T03:14:23;99627.44;;;3.66;100.00
7966;BME280;4028;43.272;26.932;2023-03-13T03:16:49;99625.13;;;3.76;100.00
7966;BME280;4028;43.272;26.932;2023-03-13T03:19:14;99628.13;;;3.70;100.00
7966;BME280;4028;43.272;26.932;2023-03-13T03:21:39;99638.75;;;3.67;100.00
7966;BME280;4028;43.272;26.932;2023-03-13T03:24:05;99633.72;;;3.63;100.00
7966;BME280;4028;43.272;26.932;2023-03-13T03:26:31;99648.25;;;3.53;100.00
7966;BME280;4028;43.272;26.932;2023-03-13T03:28:57;99649.09;;;3.54;100.00
7966;BME280;4028;43.272;26.932;2023-03-13T03:31:22;99658.53;;;3.56;100.00
7966;BME280;4028;43.272;26.932;2023-03-13T03:33:48;99657.03;;;3.36;100.00
7966;BME280;4028;43.272;26.932;2023-03-13T03:36:19;99658.06;;;3.34;100.00
7966;BME280;4028;43.272;26.932;2023-03-13T03:38:45;99655.84;;;3.42;100.00
7966;BME280;4028;43.272;26.932;2023-03-13T03:41:11;99661.63;;;3.33;100.00
7966;BME280;4028;43.272;26.932;2023-03-13T03:43:38;99653.34;;;3.25;100.00
7966;BME280;4028;43.272;26.932;2023-03-13T03:46:03;99658.06;;;3.18;100.00
7966;BME280;4028;43.272;26.932;2023-03-13T03:48:29;99664.03;;;3.20;100.00
7966;BME280;4028;43.272;26.932;2023-03-13T03:50:55;99660.44;;;3.23;100.00
7966;BME280;4028;43.272;26.932;2023-03-13T03:53:20;99667.25;;;3.25;100.00
7966;BME280;4028;43.272;26.932;2023-03-13T03:55:46;99679.72;;;3.36;100.00
7966;BME280;4028;43.272;26.932;2023-03-13T03:58:11;99677.72;;;3.25;100.00
7966;BME280;4028;43.272;26.932;2023-03-13T04:00:37;99694.34;;;3.08;100.00
7966;BME280;4028;43.272;26.932;2023-03-13T04:03:02;99693.50;;;3.08;100.00
7966;BME280;4028;43.272;26.932;2023-03-13T04:05:28;99700.31;;;3.10;100.00
7966;BME280;4028;43.272;26.932;2023-03-13T04:07:54;99700.56;;;3.06;100.00
7966;BME280;4028;43.272;26.932;2023-03-13T04:10:19;99699.47;;;2.94;100.00
7966;BME280;4028;43.272;26.932;2023-03-13T04:12:45;99700.44;;;2.92;100.00
7966;BME280;4028;43.272;26.932;2023-03-13T04:15:11;99709.47;;;2.86;100.00
7966;BME280;4028;43.272;26.932;2023-03-13T04:17:36;99704.94;;;2.90;100.00
7966;BME280;4028;43.272;26.932;2023-03-13T04:20:03;99702.56;;;2.85;100.00
7966;BME280;4028;43.272;26.932;2023-03-13T04:22:32;99710.63;;;2.80;100.00
7966;BME280;4028;43.272;26.932;2023-03-13T04:24:59;99719.88;;;2.88;100.00
7966;BME280;4028;43.272;26.932;2023-03-13T04:27:24;99722.16;;;2.94;100.00
7966;BME280;4028;43.272;26.932;2023-03-13T04:29:50;99720.38;;;2.94;100.00
7966;BME280;4028;43.272;26.932;2023-03-13T04:32:15;99726.34;;;2.96;100.00
7966;BME280;4028;43.272;26.932;2023-03-13T04:34:41;99724.66;;;2.95;100.00
7966;BME280;4028;43.272;26.932;2023-03-13T04:37:06;99732.88;;;3.05;100.00
7966;BME280;4028;43.272;26.932;2023-03-13T04:39:32;99737.16;;;3.06;100.00
7966;BME280;4028;43.272;26.932;2023-03-13T04:41:57;99732.19;;;3.01;100.00
7966;BME280;4028;43.272;26.932;2023-03-13T04:44:23;99740.72;;;3.05;100.00
7966;BME280;4028;43.272;26.932;2023-03-13T04:46:48;99736.84;;;3.12;100.00
7966;BME280;4028;43.272;26.932;2023-03-13T04:49:15;99741.41;;;3.08;100.00
7966;BME280;4028;43.272;26.932;2023-03-13T04:51:41;99745.78;;;3.08;100.00
7966;BME280;4028;43.272;26.932;2023-03-13T04:54:07;99737.84;;;2.94;100.00
7966;BME280;4028;43.272;26.932;2023-03-13T04:56:32;99758.50;;;2.98;100.00
7966;BME280;4028;43.272;26.932;2023-03-13T04:58:58;99758.94;;;3.06;100.00
7966;BME280;4028;43.272;26.932;2023-03-13T05:01:23;99756.81;;;2.97;100.00
7966;BME280;4028;43.272;26.932;2023-03-13T05:03:49;99762.34;;;2.91;100.00
7966;BME280;4028;43.272;26.932;2023-03-13T05:06:14;99756.38;;;2.89;100.00
7966;BME280;4028;43.272;26.932;2023-03-13T05:08:40;99774.00;;;3.01;100.00
7966;BME280;4028;43.272;26.932;2023-03-13T05:11:05;99773.94;;;3.03;100.00
7966;BME280;4028;43.272;26.932;2023-03-13T05:13:31;99772.94;;;3.05;100.00
7966;BME280;4028;43.272;26.932;2023-03-13T05:15:56;99773.72;;;3.07;100.00
7966;BME280;4028;43.272;26.932;2023-03-13T05:18:22;99782.16;;;3.12;100.00
7966;BME280;4028;43.272;26.932;2023-03-13T05:20:47;99776.66;;;3.17;100.00
7966;BME280;4028;43.272;26.932;2023-03-13T05:23:13;99775.66;;;3.20;100.00
7966;BME280;4028;43.272;26.932;2023-03-13T05:25:39;99778.19;;;3.21;100.00
7966;BME280;4028;43.272;26.932;2023-03-13T05:28:04;99771.47;;;3.33;100.00
7966;BME280;4028;43.272;26.932;2023-03-13T05:30:30;99782.69;;;3.35;100.00
7966;BME280;4028;43.272;26.932;2023-03-13T05:32:55;99781.66;;;3.37;100.00
7966;BME280;4028;43.272;26.932;2023-03-13T05:35:20;99777.78;;;3.29;100.00
7966;BME280;4028;43.272;26.932;2023-03-13T05:37:46;99782.44;;;3.24;100.00
7966;BME280;4028;43.272;26.932;2023-03-13T05:40:12;99792.56;;;3.30;100.00
7966;BME280;4028;43.272;26.932;2023-03-13T05:42:38;99785.31;;;3.35;100.00
7966;BME280;4028;43.272;26.932;2023-03-13T05:45:04;99787.44;;;3.44;100.00
7966;BME280;4028;43.272;26.932;2023-03-13T05:47:30;99794.59;;;3.41;100.00
7966;BME280;4028;43.272;26.932;2023-03-13T05:49:55;99791.47;;;3.50;100.00
7966;BME280;4028;43.272;26.932;2023-03-13T05:52:21;99800.31;;;3.47;100.00
7966;BME280;4028;43.272;26.932;2023-03-13T05:54:47;99796.81;;;3.48;100.00
7966;BME280;4028;43.272;26.932;2023-03-13T05:57:12;99804.66;;;3.48;100.00
7966;BME280;4028;43.272;26.932;2023-03-13T05:59:38;99806.41;;;3.48;100.00
7966;BME280;4028;43.272;26.932;2023-03-13T06:02:03;99809.47;;;3.56;100.00
7966;BME280;4028;43.272;26.932;2023-03-13T06:04:29;99812.19;;;3.70;100.00
7966;BME280;4028;43.272;26.932;2023-03-13T06:06:54;99820.38;;;3.80;100.00
7966;BME280;4028;43.272;26.932;2023-03-13T06:09:20;99823.00;;;3.80;100.00
7966;BME280;4028;43.272;26.932;2023-03-13T06:11:45;99825.59;;;3.80;100.00
7966;BME280;4028;43.272;26.932;2023-03-13T06:14:11;99826.59;;;3.93;100.00
7966;BME280;4028;43.272;26.932;2023-03-13T06:16:36;99822.56;;;3.87;100.00
7966;BME280;4028;43.272;26.932;2023-03-13T06:19:02;99827.13;;;4.00;100.00
7966;BME280;4028;43.272;26.932;2023-03-13T06:21:27;99833.69;;;4.07;100.00
7966;BME280;4028;43.272;26.932;2023-03-13T06:23:54;99835.97;;;4.13;100.00
7966;BME280;4028;43.272;26.932;2023-03-13T06:26:19;99825.19;;;4.33;100.00
7966;BME280;4028;43.272;26.932;2023-03-13T06:28:46;99824.63;;;4.58;100.00
7966;BME280;4028;43.272;26.932;2023-03-13T06:31:12;99819.91;;;4.79;100.00
7966;BME280;4028;43.272;26.932;2023-03-13T06:33:38;99839.44;;;5.32;100.00
7966;BME280;4028;43.272;26.932;2023-03-13T06:36:04;99837.69;;;6.03;100.00
7966;BME280;4028;43.272;26.932;2023-03-13T06:38:29;99837.94;;;6.79;100.00
7966;BME280;4028;43.272;26.932;2023-03-13T06:40:55;99832.78;;;7.54;100.00
7966;BME280;4028;43.272;26.932;2023-03-13T06:43:21;99814.25;;;8.16;100.00
7966;BME280;4028;43.272;26.932;2023-03-13T06:45:47;99837.78;;;9.36;96.18
7966;BME280;4028;43.272;26.932;2023-03-13T06:48:12;99841.94;;;10.60;75.13
7966;BME280;4028;43.272;26.932;2023-03-13T06:50:38;99838.38;;;11.74;63.45
7966;BME280;4028;43.272;26.932;2023-03-13T06:53:04;99830.59;;;12.71;58.29
7966;BME280;4028;43.272;26.932;2023-03-13T06:55:30;99827.88;;;13.10;53.43
7966;BME280;4028;43.272;26.932;2023-03-13T06:57:55;99834.19;;;13.56;52.02
7966;BME280;4028;43.272;26.932;2023-03-13T07:00:21;99836.53;;;13.68;50.14
7966;BME280;4028;43.272;26.932;2023-03-13T07:02:47;99841.25;;;14.02;48.47
7966;BME280;4028;43.272;26.932;2023-03-13T07:05:12;99836.34;;;14.25;48.32
7966;BME280;4028;43.272;26.932;2023-03-13T07:07:39;99823.34;;;14.22;47.09
7966;BME280;4028;43.272;26.932;2023-03-13T07:10:06;99827.16;;;14.37;46.87
7966;BME280;4028;43.272;26.932;2023-03-13T07:12:33;99830.81;;;14.36;45.74
7966;BME280;4028;43.272;26.932;2023-03-13T07:14:59;99821.91;;;14.45;45.68
7966;BME280;4028;43.272;26.932;2023-03-13T07:17:25;99826.19;;;14.74;45.90
7966;BME280;4028;43.272;26.932;2023-03-13T07:19:50;99828.09;;;14.64;45.49
7966;BME280;4028;43.272;26.932;2023-03-13T07:22:15;99811.81;;;15.11;44.98
7966;BME280;4028;43.272;26.932;2023-03-13T07:24:41;99820.66;;;15.45;44.40
7966;BME280;4028;43.272;26.932;2023-03-13T07:27:06;99804.53;;;15.81;43.00
7966;BME280;4028;43.272;26.932;2023-03-13T07:29:32;99817.88;;;15.55;43.70
7966;BME280;4028;43.272;26.932;2023-03-13T07:31:57;99814.84;;;15.42;43.67
7966;BME280;4028;43.272;26.932;2023-03-13T07:34:23;99814.69;;;14.73;43.60
7966;BME280;4028;43.272;26.932;2023-03-13T07:36:48;99813.50;;;14.50;44.53
7966;BME280;4028;43.272;26.932;2023-03-13T07:39:14;99815.69;;;14.90;44.66
7966;BME280;4028;43.272;26.932;2023-03-13T07:41:39;99815.81;;;14.89;43.98
7966;BME280;4028;43.272;26.932;2023-03-13T07:44:05;99817.97;;;15.11;43.65
7966;BME280;4028;43.272;26.932;2023-03-13T07:46:30;99816.00;;;14.69;43.78
7966;BME280;4028;43.272;26.932;2023-03-13T07:48:56;99812.31;;;15.40;43.48
7966;BME280;4028;43.272;26.932;2023-03-13T07:51:24;99802.50;;;15.41;42.61
7966;BME280;4028;43.272;26.932;2023-03-13T07:53:50;99808.69;;;15.49;42.20
7966;BME280;4028;43.272;26.932;2023-03-13T07:56:19;99810.84;;;15.72;42.29
7966;BME280;4028;43.272;26.932;2023-03-13T07:58:44;99809.41;;;15.59;42.04
7966;BME280;4028;43.272;26.932;2023-03-13T08:01:15;99809.50;;;15.76;41.69
7966;BME280;4028;43.272;26.932;2023-03-13T08:03:42;99815.38;;;16.62;40.56
7966;BME280;4028;43.272;26.932;2023-03-13T08:06:13;99812.75;;;16.95;39.52
7966;BME280;4028;43.272;26.932;2023-03-13T08:08:39;99803.31;;;17.24;38.46
7966;BME280;4028;43.272;26.932;2023-03-13T08:11:13;99801.59;;;17.39;38.09
7966;BME280;4028;43.272;26.932;2023-03-13T08:13:40;99785.16;;;17.50;37.78
7966;BME280;4028;43.272;26.932;2023-03-13T08:16:08;99807.84;;;17.79;37.45
7966;BME280;4028;43.272;26.932;2023-03-13T08:18:35;99804.00;;;18.12;36.29
7966;BME280;4028;43.272;26.932;2023-03-13T08:21:08;99796.09;;;17.88;36.64
7966;BME280;4028;43.272;26.932;2023-03-13T08:23:35;99796.81;;;18.36;36.09
7966;BME280;4028;43.272;26.932;2023-03-13T08:26:15;99805.09;;;18.95;34.93
7966;BME280;4028;43.272;26.932;2023-03-13T08:28:42;99802.78;;;19.07;33.71
7966;BME280;4028;43.272;26.932;2023-03-13T08:31:21;99806.94;;;18.94;33.56
7966;BME280;4028;43.272;26.932;2023-03-13T08:33:47;99805.94;;;19.10;33.50
7966;BME280;4028;43.272;26.932;2023-03-13T08:38:39;99806.16;;;19.68;32.77
7966;BME280;4028;43.272;26.932;2023-03-13T08:41:06;99794.56;;;19.38;32.11
7966;BME280;4028;43.272;26.932;2023-03-13T08:43:32;99800.84;;;19.89;30.99
7966;BME280;4028;43.272;26.932;2023-03-13T08:45:58;99790.06;;;19.68;29.13
7966;BME280;4028;43.272;26.932;2023-03-13T08:48:23;99795.78;;;20.16;29.11
7966;BME280;4028;43.272;26.932;2023-03-13T08:51:20;99804.38;;;19.31;27.73
7966;BME280;4028;43.272;26.932;2023-03-13T08:53:44;99798.47;;;19.20;27.29
7966;BME280;4028;43.272;26.932;2023-03-13T08:56:12;99810.09;;;18.29;28.56
7966;BME280;4028;43.272;26.932;2023-03-13T08:58:38;99809.44;;;17.96;29.15
7966;BME280;4028;43.272;26.932;2023-03-13T09:01:09;99804.97;;;18.65;28.77
7966;BME280;4028;43.272;26.932;2023-03-13T09:03:34;99804.41;;;18.93;28.25
7966;BME280;4028;43.272;26.932;2023-03-13T09:06:01;99805.59;;;19.43;28.70
7966;BME280;4028;43.272;26.932;2023-03-13T09:08:28;99809.63;;;19.24;28.08
7966;BME280;4028;43.272;26.932;2023-03-13T09:11:17;99796.16;;;19.32;27.42
7966;BME280;4028;43.272;26.932;2023-03-13T09:13:43;99811.50;;;19.53;27.44
7966;BME280;4028;43.272;26.932;2023-03-13T09:16:11;99799.88;;;19.46;27.47
7966;BME280;4028;43.272;26.932;2023-03-13T09:18:37;99798.09;;;19.53;27.14
7966;BME280;4028;43.272;26.932;2023-03-13T09:21:06;99786.88;;;19.94;26.82
7966;BME280;4028;43.272;26.932;2023-03-13T09:23:32;99783.06;;;20.24;27.16
7966;BME280;4028;43.272;26.932;2023-03-13T09:25:57;99787.63;;;19.88;26.32
7966;BME280;4028;43.272;26.932;2023-03-13T09:28:24;99790.66;;;18.96;27.75
7966;BME280;4028;43.272;26.932;2023-03-13T09:30:50;99759.50;;;19.10;26.84
7966;BME280;4028;43.272;26.932;2023-03-13T09:33:17;99789.88;;;19.40;26.29
7966;BME280;4028;43.272;26.932;2023-03-13T09:35:42;99792.69;;;19.09;26.71
7966;BME280;4028;43.272;26.932;2023-03-13T09:38:11;99787.75;;;19.50;25.89
7966;BME280;4028;43.272;26.932;2023-03-13T09:40:44;99785.06;;;19.65;26.29
7966;BME280;4028;43.272;26.932;2023-03-13T09:43:41;99790.69;;;19.85;26.83
7966;BME280;4028;43.272;26.932;2023-03-13T09:46:21;99793.03;;;20.09;26.10
7966;BME280;4028;43.272;26.932;2023-03-13T09:48:55;99770.28;;;19.90;25.58
7966;BME280;4028;43.272;26.932;2023-03-13T09:51:37;99786.97;;;19.86;25.36
7966;BME280;4028;43.272;26.932;2023-03-13T09:56:36;99782.13;;;19.96;25.35
7966;BME280;4028;43.272;26.932;2023-03-13T10:01:51;99777.91;;;19.28;25.64
7966;BME280;4028;43.272;26.932;2023-03-13T10:06:46;99773.56;;;19.27;23.91
7966;BME280;4028;43.272;26.932;2023-03-13T10:09:16;99768.50;;;19.61;23.74
7966;BME280;4028;43.272;26.932;2023-03-13T10:12:01;99783.16;;;18.91;24.44
7966;BME280;4028;43.272;26.932;2023-03-13T10:14:45;99780.97;;;18.72;24.65
7966;BME280;4028;43.272;26.932;2023-03-13T10:17:16;99770.75;;;18.67;25.22
7966;BME280;4028;43.272;26.932;2023-03-13T10:19:48;99778.78;;;18.76;24.69
7966;BME280;4028;43.272;26.932;2023-03-13T10:22:24;99768.00;;;18.38;25.24
7966;BME280;4028;43.272;26.932;2023-03-13T10:25:10;99772.78;;;17.57;26.85
7966;BME280;4028;43.272;26.932;2023-03-13T10:27:43;99758.00;;;18.09;26.25
7966;BME280;4028;43.272;26.932;2023-03-13T10:30:21;99766.56;;;18.50;25.36
7966;BME280;4028;43.272;26.932;2023-03-13T10:32:48;99756.47;;;18.52;24.96
7966;BME280;4028;43.272;26.932;2023-03-13T10:35:20;99752.78;;;18.76;24.21
7966;BME280;4028;43.272;26.932;2023-03-13T10:37:46;99752.69;;;18.69;24.24
7966;BME280;4028;43.272;26.932;2023-03-13T10:40:19;99764.00;;;18.34;24.60
7966;BME280;4028;43.272;26.932;2023-03-13T10:42:47;99742.78;;;18.47;24.43
7966;BME280;4028;43.272;26.932;2023-03-13T10:45:16;99747.03;;;18.64;24.76
7966;BME280;4028;43.272;26.932;2023-03-13T10:47:42;99734.25;;;18.89;24.38
7966;BME280;4028;43.272;26.932;2023-03-13T10:50:20;99750.66;;;18.26;24.09
7966;BME280;4028;43.272;26.932;2023-03-13T10:52:48;99748.69;;;17.57;24.79
7966;BME280;4028;43.272;26.932;2023-03-13T10:55:20;99748.34;;;18.00;25.08
7966;BME280;4028;43.272;26.932;2023-03-13T10:58:04;99740.19;;;18.39;24.28
7966;BME280;4028;43.272;26.932;2023-03-13T11:00:37;99725.63;;;18.56;24.03
7966;BME280;4028;43.272;26.932;2023-03-13T11:03:25;99721.28;;;18.93;23.93
7966;BME280;4028;43.272;26.932;2023-03-13T11:05:57;99699.75;;;19.31;23.16
7966;BME280;4028;43.272;26.932;2023-03-13T11:08:24;99712.06;;;19.40;23.44
7966;BME280;4028;43.272;26.932;2023-03-13T11:10:53;99712.53;;;19.80;23.06
7966;BME280;4028;43.272;26.932;2023-03-13T11:13:32;99701.22;;;20.06;22.47
7966;BME280;4028;43.272;26.932;2023-03-13T11:21:35;99686.72;;;19.79;23.31
7966;BME280;4028;43.272;26.932;2023-03-13T11:24:10;99696.78;;;19.26;24.03
7966;BME280;4028;43.272;26.932;2023-03-13T11:26:47;99695.84;;;19.04;23.66
7966;BME280;4028;43.272;26.932;2023-03-13T11:32:21;99680.78;;;19.17;22.93
7966;BME280;4028;43.272;26.932;2023-03-13T11:34:51;99678.59;;;18.16;23.55
7966;BME280;4028;43.272;26.932;2023-03-13T11:37:19;99661.75;;;18.83;22.92
7966;BME280;4028;43.272;26.932;2023-03-13T11:51:52;99652.34;;;18.11;25.71
7966;BME280;4028;43.272;26.932;2023-03-13T11:54:16;99639.50;;;18.44;25.31
7966;BME280;4028;43.272;26.932;2023-03-13T11:56:58;99636.00;;;18.44;25.51
7966;BME280;4028;43.272;26.932;2023-03-13T12:02:14;99638.75;;;18.74;24.74
7966;BME280;4028;43.272;26.932;2023-03-13T12:04:56;99650.03;;;17.85;25.29
7966;BME280;4028;43.272;26.932;2023-03-13T12:07:31;99644.59;;;17.71;25.98
7966;BME280;4028;43.272;26.932;2023-03-13T12:15:27;99643.63;;;17.63;25.72
7966;BME280;4028;43.272;26.932;2023-03-13T12:18:08;99633.94;;;17.62;25.52
7966;BME280;4028;43.272;26.932;2023-03-13T12:20:44;99637.25;;;17.73;25.61
7966;BME280;4028;43.272;26.932;2023-03-13T12:23:18;99635.16;;;18.06;24.87
7966;BME280;4028;43.272;26.932;2023-03-13T12:25:54;99623.84;;;18.18;24.72
7966;BME280;4028;43.272;26.932;2023-03-13T12:28:30;99623.22;;;18.46;25.23
7966;BME280;4028;43.272;26.932;2023-03-13T12:36:32;99622.03;;;18.34;23.78
7966;BME280;4028;43.272;26.932;2023-03-13T12:42:17;99622.72;;;17.67;25.57
7966;BME280;4028;43.272;26.932;2023-03-13T12:44:45;99623.25;;;17.62;25.53
7966;BME280;4028;43.272;26.932;2023-03-13T12:50:07;99605.34;;;18.09;24.82
7966;BME280;4028;43.272;26.932;2023-03-13T12:53:04;99605.09;;;18.18;25.27
7966;BME280;4028;43.272;26.932;2023-03-13T12:58:48;99611.69;;;17.93;24.89
7966;BME280;4028;43.272;26.932;2023-03-13T13:01:43;99606.19;;;18.09;24.92
7966;BME280;4028;43.272;26.932;2023-03-13T13:04:27;99607.81;;;18.33;25.33
7966;BME280;4028;43.272;26.932;2023-03-13T13:12:28;99615.72;;;17.66;26.26
7966;BME280;4028;43.272;26.932;2023-03-13T13:14:57;99606.16;;;17.63;26.36
7966;BME280;4028;43.272;26.932;2023-03-13T13:22:52;99598.50;;;17.60;26.31
7966;BME280;4028;43.272;26.932;2023-03-13T13:27:56;99607.63;;;17.20;26.83
7966;BME280;4028;43.272;26.932;2023-03-13T13:30:34;99612.47;;;16.69;26.36
7966;BME280;4028;43.272;26.932;2023-03-13T13:35:45;99605.78;;;16.81;26.15
7966;BME280;4028;43.272;26.932;2023-03-13T13:43:47;99598.38;;;16.20;27.68
7966;BME280;4028;43.272;26.932;2023-03-13T13:46:26;99587.72;;;16.28;27.37
7966;BME280;4028;43.272;26.932;2023-03-13T13:51:31;99592.66;;;16.47;27.44
7966;BME280;4028;43.272;26.932;2023-03-13T13:54:01;99599.25;;;16.04;27.65
7966;BME280;4028;43.272;26.932;2023-03-13T14:01:27;99596.03;;;16.17;28.04
7966;BME280;4028;43.272;26.932;2023-03-13T14:04:05;99586.56;;;15.90;27.71
7966;BME280;4028;43.272;26.932;2023-03-13T14:06:35;99585.06;;;16.03;27.38
7966;BME280;4028;43.272;26.932;2023-03-13T14:09:31;99587.41;;;15.82;27.95
7966;BME280;4028;43.272;26.932;2023-03-13T14:11:57;99582.22;;;15.80;27.78
7966;BME280;4028;43.272;26.932;2023-03-13T14:14:23;99584.72;;;15.90;27.69
7966;BME280;4028;43.272;26.932;2023-03-13T14:16:51;99587.06;;;15.69;28.30
7966;BME280;4028;43.272;26.932;2023-03-13T14:22:06;99570.16;;;15.60;28.11
7966;BME280;4028;43.272;26.932;2023-03-13T14:24:32;99572.34;;;15.48;28.38
7966;BME280;4028;43.272;26.932;2023-03-13T14:26:57;99569.81;;;15.39;29.12
7966;BME280;4028;43.272;26.932;2023-03-13T14:29:24;99574.78;;;15.17;28.92
7966;BME280;4028;43.272;26.932;2023-03-13T14:31:56;99568.28;;;15.12;29.17
7966;BME280;4028;43.272;26.932;2023-03-13T14:34:23;99564.94;;;14.67;29.50
7966;BME280;4028;43.272;26.932;2023-03-13T14:36:53;99572.16;;;14.75;29.94
7966;BME280;4028;43.272;26.932;2023-03-13T14:42:16;99568.84;;;14.81;30.03
7966;BME280;4028;43.272;26.932;2023-03-13T14:44:44;99572.03;;;14.85;29.88
7966;BME280;4028;43.272;26.932;2023-03-13T14:47:30;99561.53;;;14.91;29.29
7966;BME280;4028;43.272;26.932;2023-03-13T14:50:04;99565.16;;;14.82;29.13